Updated10/08/2022 4:54pm 
 

Nearby Airport METAR Reports

 

KVSF - Springfield, Vermont, USA
Distance from station: WSW 8mi, 12km
Updated: 08/10/2022 3:54pm
Overcast
Overcast
 Wind from calm
Wind: Calm
Temperature: 75°F , 24°C
Dew Point: 61°F , 16°C
Humidity: 61%
Barometer: 1017.6 hPa
Clouds: Overcast
Visibility: 16 km
Cloud details: Overcast 6000 ft
2022/08/10 19:54 KVSF 101954Z AUTO 00000KT 10SM OVC060 24/16 A3005 RMK AO2 SLP173 T02390156
KLEB - Lebanon, New Hampshire, USA
Distance from station: N 18mi, 29km
Updated: 08/10/2022 3:53pm
Overcast
Overcast
 Wind from NW
Wind: NW 7 km/h
Temperature: 75°F , 24°C
Dew Point: 55°F , 13°C
Humidity: 50%
Barometer: 1017.6 hPa
Clouds: Overcast
Visibility: 16 km
Cloud details: Overcast 4800 ft
2022/08/10 19:53 KLEB 101953Z 32004KT 10SM OVC048 24/13 A3005 RMK AO2 SLP165 T02440133
KRUT - Rutland State, Vermont, USA
Distance from station: WNW 31mi, 50km
Updated: 08/10/2022 3:56pm
Overcast
Overcast
 Wind from NNE
Wind: NNE 9 km/h
Temperature: 73°F , 23°C
Dew Point: 61°F , 16°C
Humidity: 65%
Barometer: 1017.9 hPa
Clouds: Overcast
Visibility: 16 km
Cloud details: Few Clouds 3400 ft
Overcast 4900 ft
2022/08/10 19:56 KRUT 101956Z AUTO 03005KT 10SM FEW034 OVC049 23/16 A3006 RMK AO2 SLP172 T02280156 $
 
KEEN - Keene/Dillant, New Hampshire, USA
Distance from station: S 34mi, 55km
Updated: 08/10/2022 3:56pm

 Wind from NNW
Wind: NNW 7 km/h
Temperature: 77°F , 25°C
Dew Point: 61°F , 16°C
Humidity: 57%
2022/08/10 19:56 KEEN 101956Z AUTO 34004KT 25/16 RMK AO2 SLPNO T02500156 PWINO $
K1P1 - Plymouth, New Hampshire, USA
Distance from station: NE 42mi, 67km
Updated: 08/10/2022 4:55pm
Overcast
Overcast
 Wind from W
Wind: W 6 km/h
Temperature: 72°F , 22°C
Dew Point: 57°F , 14°C
Humidity: 61%
Barometer: 1017.3 hPa
Clouds: Overcast
Visibility: 11 km
Cloud details: Overcast 4800 ft
2022/08/10 20:55 K1P1 102055Z AUTO 28003KT 7SM OVC048 22/14 A3004 RMK AO2 T02210143
KAFN - Jaffrey, New Hampshire, USA
Distance from station: SSE 44mi, 70km
Updated: 08/10/2022 4:52pm
Mostly cloudy
Mostly cloudy
 Wind from varies
Wind: varies 6 km/h
Temperature: 79°F , 26°C
Dew Point: 61°F , 16°C
Humidity: 54%
Barometer: 1017.3 hPa
Clouds: Mostly cloudy
Visibility: 16 km
Cloud details: Few Clouds 3700 ft
Mostly cloudy 6000 ft
2022/08/10 20:52 KAFN 102052Z AUTO VRB03KT 10SM FEW037 BKN060 26/16 A3004 RMK AO2 SLP170 T02560156 57012
 
KCON - Concord, New Hampshire, USA
Distance from station: ESE 45mi, 73km
Updated: 08/10/2022 4:51pm
Mostly cloudy
Mostly cloudy
 Wind from N
Wind: N 7 km/h
Temperature: 77°F , 25°C
Dew Point: 61°F , 16°C
Humidity: 57%
Barometer: 1016.3 hPa
Clouds: Mostly cloudy
Visibility: 16 km
Cloud details: Mostly cloudy 6500 ft
2022/08/10 20:51 KCON 102051Z AUTO 35004KT 10SM BKN065 25/16 A3001 RMK AO2 SLP159 T02500156 58014
KLCI - Laconia Muni, New Hampshire, USA
Distance from station: ENE 49mi, 80km
Updated: 08/10/2022 3:56pm
Overcast
Overcast
 Wind from WNW
Wind: WNW 11 km/h
Temperature: 75°F , 24°C
Dew Point: 59°F , 15°C
Humidity: 57%
Barometer: 1016.9 hPa
Clouds: Overcast
Visibility: 16 km
Cloud details: Mostly cloudy 4500 ft
Overcast 5000 ft
2022/08/10 19:56 KLCI 101956Z AUTO 29006KT 10SM BKN045 OVC050 24/15 A3003 RMK AO2 SLP170 T02390150
KDDH - Bennington, Vermont, USA
Distance from station: SW 55mi, 89km
Updated: 08/10/2022 3:54pm
Overcast
Overcast
 Wind from varies
Wind: varies 6 km/h
Temperature: 75°F , 24°C
Dew Point: 59°F , 15°C
Humidity: 57%
Barometer: 1017.6 hPa
Clouds: Overcast
Visibility: 16 km
Cloud details: Overcast 5500 ft
2022/08/10 19:54 KDDH 101954Z AUTO VRB03KT 10SM OVC055 24/15 A3005 RMK AO2 SLP173 T02390150
 
K6B0 - Middlebury, Vermont, USA
Distance from station: NW 56mi, 90km
Updated: 08/10/2022 4:35pm
Partly cloudy
Partly cloudy
 Wind from WSW
Wind: WSW 6 km/h
Temperature: 73°F , 23°C
Dew Point: 57°F , 14°C
Humidity: 57%
Barometer: 1017.3 hPa
Clouds: Partly cloudy
Visibility: 16 km
Cloud details: Partly cloudy 4900 ft
2022/08/10 20:35 K6B0 102035Z AUTO 24003KT 10SM SCT049 23/14 A3004 RMK AO2 T02330143
KMHT - Manchester, New Hampshire, USA
Distance from station: ESE 56mi, 90km
Updated: 08/10/2022 3:53pm
Mostly cloudy
Mostly cloudy
 Wind from SE
Wind: SE 7 km/h
Temperature: 79°F , 26°C
Dew Point: 61°F , 16°C
Humidity: 54%
Barometer: 1016.3 hPa
Clouds: Mostly cloudy
Visibility: 16 km
Cloud details: Few Clouds 3800 ft
Mostly cloudy 6500 ft
2022/08/10 19:53 KMHT 101953Z 14004KT 10SM FEW038 BKN065 26/16 A3001 RMK AO2 SLP170 T02560161
KORE - Orange, Massachusetts, USA
Distance from station: S 56mi, 90km
Updated: 08/10/2022 4:52pm
Overcast
Overcast
 Wind from NNE
Wind: NNE 9 km/h
Temperature: 79°F , 26°C
Dew Point: 61°F , 16°C
Humidity: 54%
Barometer: 1016.6 hPa
Clouds: Overcast
Visibility: 16 km
Cloud details: Mostly cloudy 4100 ft
Overcast 6000 ft
2022/08/10 20:52 KORE 102052Z AUTO 02005KT 10SM BKN041 OVC060 26/16 A3002 RMK AO2 SLP162 T02610161 56014
 
KMPV - Montpelier/Barre, Vermont, USA
Distance from station: N 58mi, 93km
Updated: 08/10/2022 4:51pm
Overcast
Overcast
 Wind from calm
Wind: Calm
Temperature: 72°F , 22°C
Dew Point: 55°F , 13°C
Humidity: 57%
Barometer: 1019 hPa
Clouds: Overcast
Visibility: 16 km
Cloud details: Overcast 4000 ft
2022/08/10 20:51 KMPV 102051Z AUTO 00000KT 10SM OVC040 22/13 A3009 RMK AO2 SLP187 T02170133 58015
KASH - Nashua/Boire Fld, New Hampshire, USA
Distance from station: SE 59mi, 95km
Updated: 08/10/2022 3:56pm
Overcast
Overcast
 Wind from N
Wind: N 9 km/h
Temperature: 79°F , 26°C
Dew Point: 66°F , 19°C
Humidity: 65%
Barometer: 1016.6 hPa
Clouds: Overcast
Visibility: 16 km
Cloud details: Partly cloudy 3500 ft
Mostly cloudy 5000 ft
Overcast 6500 ft
2022/08/10 19:56 KASH 101956Z 36005KT 10SM SCT035 BKN050 OVC065 26/19 A3002 RMK AO2 SLP169 T02560189 $
KAQW - North Adams, Massachusetts, USA
Distance from station: SW 62mi, 99km
Updated: 08/10/2022 4:52pm
Few Clouds
Few Clouds
 Wind from calm
Wind: Calm
Temperature: 73°F , 23°C
Dew Point: 59°F , 15°C
Humidity: 61%
Barometer: 1016.9 hPa
Clouds: Few Clouds
Visibility: 16 km
Cloud details: Few Clouds 5500 ft
2022/08/10 20:52 KAQW 102052Z AUTO 00000KT 10SM FEW055 23/15 A3003 RMK AO2 SLP167 T02280150 56018
 
KGFL - Glens Falls, New York, USA
Distance from station: W 63mi, 101km
Updated: 08/10/2022 3:53pm
Overcast
Overcast
 Wind from calm
Wind: Calm
Temperature: 75°F , 24°C
Dew Point: 61°F , 16°C
Humidity: 61%
Barometer: 1016.9 hPa
Clouds: Overcast
Visibility: 16 km
Cloud details: Partly cloudy 4100 ft
Overcast 6000 ft
2022/08/10 19:53 KGFL 101953Z AUTO 00000KT 10SM SCT041 OVC060 24/16 A3003 RMK AO2 SLP168 T02440156
KFIT - Fitchburg, Massachusetts, USA
Distance from station: SSE 65mi, 105km
Updated: 08/10/2022 11:52am
NOT Current
Overcast
Overcast
 Wind from calm
Wind: Calm
Temperature: 73°F , 23°C
Dew Point: 61°F , 16°C
Humidity: 65%
Barometer: 1018.6 hPa
Clouds: Overcast
Visibility: 16 km
Cloud details: Mostly cloudy 2000 ft
Overcast 2700 ft
2022/08/10 15:52 KFIT 101552Z AUTO 00000KT 10SM BKN020 OVC027 23/16 A3008 RMK AO2 SLP185 T02330161
KDAW - Rochester, New Hampshire, USA
Distance from station: E 73mi, 118km
Updated: 08/10/2022 4:51pm
Overcast
Overcast
 Wind from SSE
Wind: SSE 9 km/h
Temperature: 73°F , 23°C
Dew Point: 63°F , 17°C
Humidity: 69%
Barometer: 1016.6 hPa
Clouds: Overcast
Visibility: 16 km
Cloud details: Overcast 6000 ft
2022/08/10 20:51 KDAW 102051Z AUTO 15005KT 10SM OVC060 23/17 A3002 RMK AO2 SLP163 T02330172 58008
 
K1V4 - St. Johnsbury, Vermont, USA
Distance from station: NNE 74mi, 119km
Updated: 07/06/2022 8:54am
NOT Current

 
Temperature: 63°F , 17°C
Dew Point: 55°F , 13°C
Humidity: 77%
Barometer: 1009.5 hPa
2022/07/06 12:54 K1V4 061254Z AUTO 17/13 A2981 RMK AO1 SLP089 T01720133
KLWM - Lawrence, Massachusetts, USA
Distance from station: SE 77mi, 124km
Updated: 08/10/2022 3:54pm
Overcast
Overcast
 Wind from E
Wind: E 15 km/h
Temperature: 77°F , 25°C
Dew Point: 63°F , 17°C
Humidity: 61%
Barometer: 1017.3 hPa
Clouds: Overcast
Visibility: 16 km
Cloud details: Mostly cloudy 3300 ft
Mostly cloudy 4500 ft
Overcast 6500 ft
2022/08/10 19:54 KLWM 101954Z 09008KT 10SM BKN033 BKN045 OVC065 25/17 A3004 RMK AO2 SLP170 T02500167



Flag Counter
free counter page views since 4/29/2009